sensor_id;sensor_type;location;lat;lon;timestamp;temperature;humidity
15262;DHT22;7733;51.554;13.590;2023-07-16T00:01:45;23.80;99.90
15262;DHT22;7733;51.554;13.590;2023-07-16T00:04:11;23.80;99.90
15262;DHT22;7733;51.554;13.590;2023-07-16T00:06:37;23.90;99.90
15262;DHT22;7733;51.554;13.590;2023-07-16T00:09:03;23.80;99.90
15262;DHT22;7733;51.554;13.590;2023-07-16T00:11:28;23.70;99.90
15262;DHT22;7733;51.554;13.590;2023-07-16T00:13:54;23.50;99.90
15262;DHT22;7733;51.554;13.590;2023-07-16T00:16:20;23.50;99.90
15262;DHT22;7733;51.554;13.590;2023-07-16T00:18:46;23.60;99.90
15262;DHT22;7733;51.554;13.590;2023-07-16T00:21:12;23.60;99.90
15262;DHT22;7733;51.554;13.590;2023-07-16T00:23:38;23.70;99.90
15262;DHT22;7733;51.554;13.590;2023-07-16T00:26:04;23.50;99.90
15262;DHT22;7733;51.554;13.590;2023-07-16T00:28:30;23.60;99.90
15262;DHT22;7733;51.554;13.590;2023-07-16T00:30:56;23.40;99.90
15262;DHT22;7733;51.554;13.590;2023-07-16T00:33:21;23.40;99.90
15262;DHT22;7733;51.554;13.590;2023-07-16T00:35:48;23.50;99.90
15262;DHT22;7733;51.554;13.590;2023-07-16T00:38:16;23.50;99.90
15262;DHT22;7733;51.554;13.590;2023-07-16T00:40:42;23.60;99.90
15262;DHT22;7733;51.554;13.590;2023-07-16T00:43:08;23.70;99.90
15262;DHT22;7733;51.554;13.590;2023-07-16T00:45:34;23.70;99.90
15262;DHT22;7733;51.554;13.590;2023-07-16T00:48:00;23.80;99.90
15262;DHT22;7733;51.554;13.590;2023-07-16T00:50:26;23.80;99.90
15262;DHT22;7733;51.554;13.590;2023-07-16T00:52:53;23.80;99.90
15262;DHT22;7733;51.554;13.590;2023-07-16T00:55:19;23.70;99.90
15262;DHT22;7733;51.554;13.590;2023-07-16T00:57:45;23.60;99.90
15262;DHT22;7733;51.554;13.590;2023-07-16T01:00:12;23.30;99.90
15262;DHT22;7733;51.554;13.590;2023-07-16T01:02:38;23.00;99.90
15262;DHT22;7733;51.554;13.590;2023-07-16T01:05:04;22.70;99.90
15262;DHT22;7733;51.554;13.590;2023-07-16T01:07:30;22.40;99.90
15262;DHT22;7733;51.554;13.590;2023-07-16T01:09:58;22.30;99.90
15262;DHT22;7733;51.554;13.590;2023-07-16T01:12:25;22.30;99.90
15262;DHT22;7733;51.554;13.590;2023-07-16T01:14:52;22.30;99.90
15262;DHT22;7733;51.554;13.590;2023-07-16T01:17:19;22.30;99.90
15262;DHT22;7733;51.554;13.590;2023-07-16T01:19:45;22.40;99.90
15262;DHT22;7733;51.554;13.590;2023-07-16T01:28:09;22.70;99.90
15262;DHT22;7733;51.554;13.590;2023-07-16T01:30:45;22.70;99.90
15262;DHT22;7733;51.554;13.590;2023-07-16T01:33:13;22.70;99.90
15262;DHT22;7733;51.554;13.590;2023-07-16T01:35:42;22.70;99.90
15262;DHT22;7733;51.554;13.590;2023-07-16T01:38:10;22.70;99.90
15262;DHT22;7733;51.554;13.590;2023-07-16T01:40:36;22.50;99.90
15262;DHT22;7733;51.554;13.590;2023-07-16T01:43:02;22.60;99.90
15262;DHT22;7733;51.554;13.590;2023-07-16T01:45:27;22.40;99.90
15262;DHT22;7733;51.554;13.590;2023-07-16T01:48:32;22.20;99.90
15262;DHT22;7733;51.554;13.590;2023-07-16T01:51:01;22.20;99.90
15262;DHT22;7733;51.554;13.590;2023-07-16T01:53:28;22.30;99.90
15262;DHT22;7733;51.554;13.590;2023-07-16T01:55:53;22.20;99.90
15262;DHT22;7733;51.554;13.590;2023-07-16T01:58:19;22.00;99.90
15262;DHT22;7733;51.554;13.590;2023-07-16T02:00:45;22.10;99.90
15262;DHT22;7733;51.554;13.590;2023-07-16T02:03:11;22.10;99.90
15262;DHT22;7733;51.554;13.590;2023-07-16T02:05:37;21.90;99.90
15262;DHT22;7733;51.554;13.590;2023-07-16T02:08:03;21.60;99.90
15262;DHT22;7733;51.554;13.590;2023-07-16T02:10:28;21.50;99.90
15262;DHT22;7733;51.554;13.590;2023-07-16T02:12:54;21.60;99.90
15262;DHT22;7733;51.554;13.590;2023-07-16T02:15:20;21.60;99.90
15262;DHT22;7733;51.554;13.590;2023-07-16T02:17:47;21.60;99.90
15262;DHT22;7733;51.554;13.590;2023-07-16T02:20:13;21.70;99.90
15262;DHT22;7733;51.554;13.590;2023-07-16T02:22:39;21.60;99.90
15262;DHT22;7733;51.554;13.590;2023-07-16T02:25:05;21.70;99.90
15262;DHT22;7733;51.554;13.590;2023-07-16T02:27:31;21.60;99.90
15262;DHT22;7733;51.554;13.590;2023-07-16T02:29:57;21.40;99.90
15262;DHT22;7733;51.554;13.590;2023-07-16T02:32:23;21.30;99.90
15262;DHT22;7733;51.554;13.590;2023-07-16T02:34:49;21.20;99.90
15262;DHT22;7733;51.554;13.590;2023-07-16T02:37:15;21.20;99.90
15262;DHT22;7733;51.554;13.590;2023-07-16T02:39:43;21.20;99.90
15262;DHT22;7733;51.554;13.590;2023-07-16T02:42:10;21.10;99.90
15262;DHT22;7733;51.554;13.590;2023-07-16T02:44:36;21.10;99.90
15262;DHT22;7733;51.554;13.590;2023-07-16T02:47:07;21.10;99.90
15262;DHT22;7733;51.554;13.590;2023-07-16T02:49:33;21.00;99.90
15262;DHT22;7733;51.554;13.590;2023-07-16T02:51:58;21.00;99.90
15262;DHT22;7733;51.554;13.590;2023-07-16T02:54:24;20.90;99.90
15262;DHT22;7733;51.554;13.590;2023-07-16T02:56:50;20.90;99.90
15262;DHT22;7733;51.554;13.590;2023-07-16T02:59:16;21.00;99.90
15262;DHT22;7733;51.554;13.590;2023-07-16T03:01:41;21.10;99.90
15262;DHT22;7733;51.554;13.590;2023-07-16T03:04:07;21.00;99.90
15262;DHT22;7733;51.554;13.590;2023-07-16T03:06:33;21.00;99.90
15262;DHT22;7733;51.554;13.590;2023-07-16T03:08:58;20.80;99.90
15262;DHT22;7733;51.554;13.590;2023-07-16T03:11:24;20.80;99.90
15262;DHT22;7733;51.554;13.590;2023-07-16T03:13:50;20.70;99.90
15262;DHT22;7733;51.554;13.590;2023-07-16T03:16:16;20.70;99.90
15262;DHT22;7733;51.554;13.590;2023-07-16T03:18:41;20.60;99.90
15262;DHT22;7733;51.554;13.590;2023-07-16T03:21:07;20.60;99.90
15262;DHT22;7733;51.554;13.590;2023-07-16T03:23:33;20.50;99.90
15262;DHT22;7733;51.554;13.590;2023-07-16T03:25:59;20.60;99.90
15262;DHT22;7733;51.554;13.590;2023-07-16T03:28:24;20.50;99.90
15262;DHT22;7733;51.554;13.590;2023-07-16T03:30:51;20.70;99.90
15262;DHT22;7733;51.554;13.590;2023-07-16T03:33:17;20.60;99.90
15262;DHT22;7733;51.554;13.590;2023-07-16T03:35:43;20.50;99.90
15262;DHT22;7733;51.554;13.590;2023-07-16T03:38:11;20.50;99.90
15262;DHT22;7733;51.554;13.590;2023-07-16T03:40:37;20.60;99.90
15262;DHT22;7733;51.554;13.590;2023-07-16T03:43:03;20.80;99.90
15262;DHT22;7733;51.554;13.590;2023-07-16T03:45:29;20.70;99.90
15262;DHT22;7733;51.554;13.590;2023-07-16T03:47:54;20.60;99.90
15262;DHT22;7733;51.554;13.590;2023-07-16T03:50:20;20.40;99.90
15262;DHT22;7733;51.554;13.590;2023-07-16T03:52:46;20.40;99.90
15262;DHT22;7733;51.554;13.590;2023-07-16T03:55:13;20.60;99.90
15262;DHT22;7733;51.554;13.590;2023-07-16T03:57:38;20.60;99.90
15262;DHT22;7733;51.554;13.590;2023-07-16T04:00:05;20.50;99.90
15262;DHT22;7733;51.554;13.590;2023-07-16T04:02:33;20.50;99.90
15262;DHT22;7733;51.554;13.590;2023-07-16T04:04:59;20.50;99.90
15262;DHT22;7733;51.554;13.590;2023-07-16T04:07:24;20.60;99.90
15262;DHT22;7733;51.554;13.590;2023-07-16T04:09:51;20.50;99.90
15262;DHT22;7733;51.554;13.590;2023-07-16T04:12:17;20.70;99.90
15262;DHT22;7733;51.554;13.590;2023-07-16T04:14:43;20.80;99.90
15262;DHT22;7733;51.554;13.590;2023-07-16T04:17:08;20.80;99.90
15262;DHT22;7733;51.554;13.590;2023-07-16T04:19:34;20.80;99.90
15262;DHT22;7733;51.554;13.590;2023-07-16T04:22:00;20.90;99.90
15262;DHT22;7733;51.554;13.590;2023-07-16T04:24:26;20.80;99.90
15262;DHT22;7733;51.554;13.590;2023-07-16T04:26:53;20.80;99.90
15262;DHT22;7733;51.554;13.590;2023-07-16T04:29:19;20.80;99.90
15262;DHT22;7733;51.554;13.590;2023-07-16T04:31:45;20.70;99.90
15262;DHT22;7733;51.554;13.590;2023-07-16T04:34:11;20.80;99.90
15262;DHT22;7733;51.554;13.590;2023-07-16T04:36:37;20.80;99.90
15262;DHT22;7733;51.554;13.590;2023-07-16T04:39:03;20.80;99.90
15262;DHT22;7733;51.554;13.590;2023-07-16T04:41:30;20.80;99.90
15262;DHT22;7733;51.554;13.590;2023-07-16T04:43:55;21.00;99.90
15262;DHT22;7733;51.554;13.590;2023-07-16T04:46:21;21.00;99.90
15262;DHT22;7733;51.554;13.590;2023-07-16T04:48:47;21.00;99.90
15262;DHT22;7733;51.554;13.590;2023-07-16T04:51:13;21.10;99.90
15262;DHT22;7733;51.554;13.590;2023-07-16T04:53:39;21.10;99.90
15262;DHT22;7733;51.554;13.590;2023-07-16T04:56:04;21.10;99.90
15262;DHT22;7733;51.554;13.590;2023-07-16T04:58:37;20.70;99.90
15262;DHT22;7733;51.554;13.590;2023-07-16T05:01:03;20.60;99.90
15262;DHT22;7733;51.554;13.590;2023-07-16T05:03:29;20.60;99.90
15262;DHT22;7733;51.554;13.590;2023-07-16T05:05:55;20.80;99.90
15262;DHT22;7733;51.554;13.590;2023-07-16T05:08:20;21.10;99.90
15262;DHT22;7733;51.554;13.590;2023-07-16T05:10:46;21.10;99.90
15262;DHT22;7733;51.554;13.590;2023-07-16T05:13:12;21.30;99.90
15262;DHT22;7733;51.554;13.590;2023-07-16T05:15:40;21.30;99.90
15262;DHT22;7733;51.554;13.590;2023-07-16T05:18:08;21.20;99.90
15262;DHT22;7733;51.554;13.590;2023-07-16T05:20:34;20.70;99.90
15262;DHT22;7733;51.554;13.590;2023-07-16T05:23:00;20.60;99.90
15262;DHT22;7733;51.554;13.590;2023-07-16T05:25:25;20.60;99.90
15262;DHT22;7733;51.554;13.590;2023-07-16T05:27:51;20.60;99.90
15262;DHT22;7733;51.554;13.590;2023-07-16T05:30:17;20.70;99.90
15262;DHT22;7733;51.554;13.590;2023-07-16T05:32:43;20.90;99.90
15262;DHT22;7733;51.554;13.590;2023-07-16T05:35:09;20.90;99.90
15262;DHT22;7733;51.554;13.590;2023-07-16T05:37:35;21.10;99.90
15262;DHT22;7733;51.554;13.590;2023-07-16T05:40:00;21.10;99.90
15262;DHT22;7733;51.554;13.590;2023-07-16T05:42:26;21.10;99.90
15262;DHT22;7733;51.554;13.590;2023-07-16T05:44:52;21.10;99.90
15262;DHT22;7733;51.554;13.590;2023-07-16T05:47:18;21.10;99.90
15262;DHT22;7733;51.554;13.590;2023-07-16T05:49:43;21.30;99.90
15262;DHT22;7733;51.554;13.590;2023-07-16T05:52:10;21.40;99.90
15262;DHT22;7733;51.554;13.590;2023-07-16T05:54:35;21.50;99.90
15262;DHT22;7733;51.554;13.590;2023-07-16T05:57:01;21.50;99.90
15262;DHT22;7733;51.554;13.590;2023-07-16T05:59:27;21.60;99.90
15262;DHT22;7733;51.554;13.590;2023-07-16T06:01:53;21.70;99.90
15262;DHT22;7733;51.554;13.590;2023-07-16T06:04:18;21.70;99.90
15262;DHT22;7733;51.554;13.590;2023-07-16T06:06:44;21.70;99.90
15262;DHT22;7733;51.554;13.590;2023-07-16T06:09:10;21.80;99.90
15262;DHT22;7733;51.554;13.590;2023-07-16T06:11:35;21.90;99.90
15262;DHT22;7733;51.554;13.590;2023-07-16T06:14:01;22.10;99.90
15262;DHT22;7733;51.554;13.590;2023-07-16T06:16:27;22.10;99.90
15262;DHT22;7733;51.554;13.590;2023-07-16T06:18:53;22.30;99.90
15262;DHT22;7733;51.554;13.590;2023-07-16T06:21:18;22.40;99.90
15262;DHT22;7733;51.554;13.590;2023-07-16T06:23:44;22.30;99.90
15262;DHT22;7733;51.554;13.590;2023-07-16T06:26:10;22.20;99.90
15262;DHT22;7733;51.554;13.590;2023-07-16T06:28:36;22.30;99.90
15262;DHT22;7733;51.554;13.590;2023-07-16T06:31:01;22.20;99.90
15262;DHT22;7733;51.554;13.590;2023-07-16T06:33:27;22.10;99.90
15262;DHT22;7733;51.554;13.590;2023-07-16T06:35:53;22.10;99.90
15262;DHT22;7733;51.554;13.590;2023-07-16T06:38:19;22.00;99.90
15262;DHT22;7733;51.554;13.590;2023-07-16T06:40:49;22.10;99.90
15262;DHT22;7733;51.554;13.590;2023-07-16T06:43:16;22.10;99.90
15262;DHT22;7733;51.554;13.590;2023-07-16T06:45:42;22.10;99.90
15262;DHT22;7733;51.554;13.590;2023-07-16T06:48:08;22.30;99.90
15262;DHT22;7733;51.554;13.590;2023-07-16T06:50:34;22.40;99.90
15262;DHT22;7733;51.554;13.590;2023-07-16T06:53:00;22.50;99.90
15262;DHT22;7733;51.554;13.590;2023-07-16T06:55:26;22.60;99.90
15262;DHT22;7733;51.554;13.590;2023-07-16T06:57:52;22.70;99.90
15262;DHT22;7733;51.554;13.590;2023-07-16T07:00:18;22.80;99.90
15262;DHT22;7733;51.554;13.590;2023-07-16T07:02:44;22.80;99.90
15262;DHT22;7733;51.554;13.590;2023-07-16T07:05:09;22.90;99.90
15262;DHT22;7733;51.554;13.590;2023-07-16T07:07:35;22.90;99.90
15262;DHT22;7733;51.554;13.590;2023-07-16T07:10:01;23.00;99.90
15262;DHT22;7733;51.554;13.590;2023-07-16T07:12:27;23.10;99.90
15262;DHT22;7733;51.554;13.590;2023-07-16T07:14:53;23.10;99.90
15262;DHT22;7733;51.554;13.590;2023-07-16T07:17:18;23.30;99.90
15262;DHT22;7733;51.554;13.590;2023-07-16T07:19:44;23.50;99.90
15262;DHT22;7733;51.554;13.590;2023-07-16T07:22:11;23.50;99.90
15262;DHT22;7733;51.554;13.590;2023-07-16T07:24:37;23.40;99.90
15262;DHT22;7733;51.554;13.590;2023-07-16T07:27:03;23.60;99.90
15262;DHT22;7733;51.554;13.590;2023-07-16T07:29:29;23.60;99.90
15262;DHT22;7733;51.554;13.590;2023-07-16T07:31:54;23.70;99.90
15262;DHT22;7733;51.554;13.590;2023-07-16T07:34:20;23.60;99.90
15262;DHT22;7733;51.554;13.590;2023-07-16T07:36:46;23.70;99.90
15262;DHT22;7733;51.554;13.590;2023-07-16T07:39:11;23.90;99.90
15262;DHT22;7733;51.554;13.590;2023-07-16T07:41:38;24.10;99.90
15262;DHT22;7733;51.554;13.590;2023-07-16T07:44:04;24.10;99.90
15262;DHT22;7733;51.554;13.590;2023-07-16T07:46:30;24.30;99.90
15262;DHT22;7733;51.554;13.590;2023-07-16T07:48:56;24.30;99.90
15262;DHT22;7733;51.554;13.590;2023-07-16T07:51:21;24.10;99.90
15262;DHT22;7733;51.554;13.590;2023-07-16T07:53:47;24.10;99.90
15262;DHT22;7733;51.554;13.590;2023-07-16T07:56:14;24.10;99.90
15262;DHT22;7733;51.554;13.590;2023-07-16T07:58:39;24.10;99.90
15262;DHT22;7733;51.554;13.590;2023-07-16T08:01:08;24.30;99.90
15262;DHT22;7733;51.554;13.590;2023-07-16T08:03:34;24.40;99.90
15262;DHT22;7733;51.554;13.590;2023-07-16T08:06:00;24.50;99.90
15262;DHT22;7733;51.554;13.590;2023-07-16T08:08:26;24.60;99.90
15262;DHT22;7733;51.554;13.590;2023-07-16T08:10:53;24.70;99.90
15262;DHT22;7733;51.554;13.590;2023-07-16T08:13:20;24.80;99.90
15262;DHT22;7733;51.554;13.590;2023-07-16T08:15:45;24.90;99.90
15262;DHT22;7733;51.554;13.590;2023-07-16T08:18:13;25.00;99.90
15262;DHT22;7733;51.554;13.590;2023-07-16T08:20:39;25.10;99.90
15262;DHT22;7733;51.554;13.590;2023-07-16T08:23:06;25.10;99.90
15262;DHT22;7733;51.554;13.590;2023-07-16T08:25:32;25.00;99.90
15262;DHT22;7733;51.554;13.590;2023-07-16T08:27:58;25.00;99.90
15262;DHT22;7733;51.554;13.590;2023-07-16T08:30:23;24.50;99.90
15262;DHT22;7733;51.554;13.590;2023-07-16T08:32:49;24.50;99.90
15262;DHT22;7733;51.554;13.590;2023-07-16T08:35:15;24.60;99.90
15262;DHT22;7733;51.554;13.590;2023-07-16T08:37:43;24.60;99.90
15262;DHT22;7733;51.554;13.590;2023-07-16T08:40:10;24.70;99.90
15262;DHT22;7733;51.554;13.590;2023-07-16T08:42:38;24.70;99.90
15262;DHT22;7733;51.554;13.590;2023-07-16T08:45:06;25.10;99.90
15262;DHT22;7733;51.554;13.590;2023-07-16T08:47:35;25.40;99.80
15262;DHT22;7733;51.554;13.590;2023-07-16T08:50:02;25.60;99.40
15262;DHT22;7733;51.554;13.590;2023-07-16T08:52:29;25.60;99.20
15262;DHT22;7733;51.554;13.590;2023-07-16T08:54:55;25.40;98.90
15262;DHT22;7733;51.554;13.590;2023-07-16T08:57:22;25.10;98.90
15262;DHT22;7733;51.554;13.590;2023-07-16T08:59:49;25.50;99.20
15262;DHT22;7733;51.554;13.590;2023-07-16T09:02:17;25.90;97.30
15262;DHT22;7733;51.554;13.590;2023-07-16T09:04:47;26.30;96.30
15262;DHT22;7733;51.554;13.590;2023-07-16T09:07:14;26.30;96.10
15262;DHT22;7733;51.554;13.590;2023-07-16T09:09:41;26.20;94.60
15262;DHT22;7733;51.554;13.590;2023-07-16T09:12:11;25.90;94.10
15262;DHT22;7733;51.554;13.590;2023-07-16T09:14:37;26.00;93.10
15262;DHT22;7733;51.554;13.590;2023-07-16T09:17:05;26.00;91.00
15262;DHT22;7733;51.554;13.590;2023-07-16T09:19:34;26.10;92.00
15262;DHT22;7733;51.554;13.590;2023-07-16T09:22:01;26.30;91.00
15262;DHT22;7733;51.554;13.590;2023-07-16T09:24:29;26.70;91.40
15262;DHT22;7733;51.554;13.590;2023-07-16T09:26:55;26.50;87.50
15262;DHT22;7733;51.554;13.590;2023-07-16T09:29:21;26.30;88.30
15262;DHT22;7733;51.554;13.590;2023-07-16T09:32:00;26.40;86.00
15262;DHT22;7733;51.554;13.590;2023-07-16T09:34:30;26.40;87.70
15262;DHT22;7733;51.554;13.590;2023-07-16T09:36:58;26.50;86.10
15262;DHT22;7733;51.554;13.590;2023-07-16T09:39:25;26.20;86.10
15262;DHT22;7733;51.554;13.590;2023-07-16T09:41:52;26.00;85.40
15262;DHT22;7733;51.554;13.590;2023-07-16T09:44:19;25.90;84.80
15262;DHT22;7733;51.554;13.590;2023-07-16T09:46:45;26.10;84.10
15262;DHT22;7733;51.554;13.590;2023-07-16T09:49:13;26.40;84.70
15262;DHT22;7733;51.554;13.590;2023-07-16T09:51:40;26.70;82.70
15262;DHT22;7733;51.554;13.590;2023-07-16T09:54:08;26.80;80.60
15262;DHT22;7733;51.554;13.590;2023-07-16T09:56:48;26.90;82.20
15262;DHT22;7733;51.554;13.590;2023-07-16T09:59:19;27.00;80.80
15262;DHT22;7733;51.554;13.590;2023-07-16T10:01:48;27.20;82.70
15262;DHT22;7733;51.554;13.590;2023-07-16T10:04:17;27.80;80.10
15262;DHT22;7733;51.554;13.590;2023-07-16T10:06:55;27.50;79.70
15262;DHT22;7733;51.554;13.590;2023-07-16T10:09:37;27.00;82.30
15262;DHT22;7733;51.554;13.590;2023-07-16T10:12:23;26.80;83.10
15262;DHT22;7733;51.554;13.590;2023-07-16T10:14:51;26.90;84.40
15262;DHT22;7733;51.554;13.590;2023-07-16T10:17:20;27.60;82.50
15262;DHT22;7733;51.554;13.590;2023-07-16T10:22:42;27.30;81.50
15262;DHT22;7733;51.554;13.590;2023-07-16T10:25:23;27.70;78.80
15262;DHT22;7733;51.554;13.590;2023-07-16T10:27:52;27.60;82.30
15262;DHT22;7733;51.554;13.590;2023-07-16T10:30:19;27.10;81.20
15262;DHT22;7733;51.554;13.590;2023-07-16T10:32:45;27.40;80.40
15262;DHT22;7733;51.554;13.590;2023-07-16T10:35:12;27.90;79.60
15262;DHT22;7733;51.554;13.590;2023-07-16T10:37:39;27.50;79.00
15262;DHT22;7733;51.554;13.590;2023-07-16T10:40:10;27.10;78.70
15262;DHT22;7733;51.554;13.590;2023-07-16T10:42:37;26.80;80.00
15262;DHT22;7733;51.554;13.590;2023-07-16T10:45:07;26.90;78.20
15262;DHT22;7733;51.554;13.590;2023-07-16T10:47:37;26.70;78.50
15262;DHT22;7733;51.554;13.590;2023-07-16T10:50:15;26.60;79.00
15262;DHT22;7733;51.554;13.590;2023-07-16T10:52:41;27.00;77.50
15262;DHT22;7733;51.554;13.590;2023-07-16T10:55:07;27.20;76.50
15262;DHT22;7733;51.554;13.590;2023-07-16T10:57:33;27.20;77.40
15262;DHT22;7733;51.554;13.590;2023-07-16T10:59:59;27.00;76.70
15262;DHT22;7733;51.554;13.590;2023-07-16T11:02:26;27.00;76.60
15262;DHT22;7733;51.554;13.590;2023-07-16T11:04:52;26.80;74.90
15262;DHT22;7733;51.554;13.590;2023-07-16T11:07:20;27.10;75.90
15262;DHT22;7733;51.554;13.590;2023-07-16T11:09:52;26.70;76.30
15262;DHT22;7733;51.554;13.590;2023-07-16T11:12:21;26.90;77.70
15262;DHT22;7733;51.554;13.590;2023-07-16T11:14:55;27.40;75.40
15262;DHT22;7733;51.554;13.590;2023-07-16T11:17:24;27.40;73.70
15262;DHT22;7733;51.554;13.590;2023-07-16T11:19:53;27.90;72.10
15262;DHT22;7733;51.554;13.590;2023-07-16T11:22:24;28.50;71.20
15262;DHT22;7733;51.554;13.590;2023-07-16T11:24:52;27.70;70.90
15262;DHT22;7733;51.554;13.590;2023-07-16T11:27:21;27.40;71.90
15262;DHT22;7733;51.554;13.590;2023-07-16T11:29:54;27.70;70.40
15262;DHT22;7733;51.554;13.590;2023-07-16T11:32:45;27.80;71.10
15262;DHT22;7733;51.554;13.590;2023-07-16T11:35:18;27.40;71.00
15262;DHT22;7733;51.554;13.590;2023-07-16T11:37:46;26.90;73.10
15262;DHT22;7733;51.554;13.590;2023-07-16T11:40:16;27.30;74.00
15262;DHT22;7733;51.554;13.590;2023-07-16T11:42:44;27.60;70.80
15262;DHT22;7733;51.554;13.590;2023-07-16T11:45:18;28.00;71.00
15262;DHT22;7733;51.554;13.590;2023-07-16T11:47:45;27.60;70.40
15262;DHT22;7733;51.554;13.590;2023-07-16T11:50:12;27.00;71.40
15262;DHT22;7733;51.554;13.590;2023-07-16T11:52:39;27.00;70.80
15262;DHT22;7733;51.554;13.590;2023-07-16T11:55:05;27.30;70.80
15262;DHT22;7733;51.554;13.590;2023-07-16T11:57:31;27.50;70.30
15262;DHT22;7733;51.554;13.590;2023-07-16T11:59:57;27.90;69.60
15262;DHT22;7733;51.554;13.590;2023-07-16T12:02:24;28.00;69.00
15262;DHT22;7733;51.554;13.590;2023-07-16T12:04:50;27.50;70.00
15262;DHT22;7733;51.554;13.590;2023-07-16T12:07:39;27.20;70.00
15262;DHT22;7733;51.554;13.590;2023-07-16T12:10:06;27.70;69.20
15262;DHT22;7733;51.554;13.590;2023-07-16T12:12:33;28.10;67.80
15262;DHT22;7733;51.554;13.590;2023-07-16T12:15:06;28.30;68.00
15262;DHT22;7733;51.554;13.590;2023-07-16T12:17:33;28.60;66.70
15262;DHT22;7733;51.554;13.590;2023-07-16T12:19:59;28.50;67.20
15262;DHT22;7733;51.554;13.590;2023-07-16T12:22:27;28.50;67.90
15262;DHT22;7733;51.554;13.590;2023-07-16T12:24:53;28.60;67.30
15262;DHT22;7733;51.554;13.590;2023-07-16T12:27:19;28.90;65.00
15262;DHT22;7733;51.554;13.590;2023-07-16T12:29:45;28.60;66.60
15262;DHT22;7733;51.554;13.590;2023-07-16T12:32:12;27.80;69.50
15262;DHT22;7733;51.554;13.590;2023-07-16T12:34:38;28.10;69.80
15262;DHT22;7733;51.554;13.590;2023-07-16T12:37:05;28.10;68.60
15262;DHT22;7733;51.554;13.590;2023-07-16T12:39:31;28.10;68.10
15262;DHT22;7733;51.554;13.590;2023-07-16T12:41:56;28.00;68.90
15262;DHT22;7733;51.554;13.590;2023-07-16T12:44:22;28.10;67.30
15262;DHT22;7733;51.554;13.590;2023-07-16T12:46:48;28.30;66.40
15262;DHT22;7733;51.554;13.590;2023-07-16T12:49:13;28.60;65.20
15262;DHT22;7733;51.554;13.590;2023-07-16T12:51:40;28.40;65.10
15262;DHT22;7733;51.554;13.590;2023-07-16T12:54:06;28.50;63.70
15262;DHT22;7733;51.554;13.590;2023-07-16T12:56:31;28.10;64.20
15262;DHT22;7733;51.554;13.590;2023-07-16T12:58:58;28.30;65.10
15262;DHT22;7733;51.554;13.590;2023-07-16T13:01:23;28.70;64.10
15262;DHT22;7733;51.554;13.590;2023-07-16T13:03:49;28.70;63.60
15262;DHT22;7733;51.554;13.590;2023-07-16T13:06:15;29.10;61.30
15262;DHT22;7733;51.554;13.590;2023-07-16T13:08:41;29.10;60.20
15262;DHT22;7733;51.554;13.590;2023-07-16T13:11:07;28.90;60.50
15262;DHT22;7733;51.554;13.590;2023-07-16T13:13:32;29.30;60.30
15262;DHT22;7733;51.554;13.590;2023-07-16T13:15:58;29.60;59.80
15262;DHT22;7733;51.554;13.590;2023-07-16T13:18:24;29.20;59.90
15262;DHT22;7733;51.554;13.590;2023-07-16T13:20:50;29.40;59.40
15262;DHT22;7733;51.554;13.590;2023-07-16T13:23:16;29.30;58.30
15262;DHT22;7733;51.554;13.590;2023-07-16T13:25:41;29.10;58.70
15262;DHT22;7733;51.554;13.590;2023-07-16T13:28:08;28.60;59.10
15262;DHT22;7733;51.554;13.590;2023-07-16T13:30:34;28.40;60.00
15262;DHT22;7733;51.554;13.590;2023-07-16T13:33:00;28.30;60.70
15262;DHT22;7733;51.554;13.590;2023-07-16T13:35:26;28.80;60.40
15262;DHT22;7733;51.554;13.590;2023-07-16T13:37:53;28.90;59.60
15262;DHT22;7733;51.554;13.590;2023-07-16T13:40:19;29.10;59.80
15262;DHT22;7733;51.554;13.590;2023-07-16T13:42:46;29.00;59.80
15262;DHT22;7733;51.554;13.590;2023-07-16T13:45:13;28.90;60.50
15262;DHT22;7733;51.554;13.590;2023-07-16T13:47:39;29.00;59.80
15262;DHT22;7733;51.554;13.590;2023-07-16T13:50:05;29.10;59.70
15262;DHT22;7733;51.554;13.590;2023-07-16T13:52:31;29.10;59.70
15262;DHT22;7733;51.554;13.590;2023-07-16T13:54:57;29.20;60.70
15262;DHT22;7733;51.554;13.590;2023-07-16T13:57:22;29.50;60.00
15262;DHT22;7733;51.554;13.590;2023-07-16T13:59:48;29.30;60.20
15262;DHT22;7733;51.554;13.590;2023-07-16T14:02:14;29.00;58.90
15262;DHT22;7733;51.554;13.590;2023-07-16T14:04:40;28.80;58.80
15262;DHT22;7733;51.554;13.590;2023-07-16T14:07:05;29.00;59.00
15262;DHT22;7733;51.554;13.590;2023-07-16T14:09:31;28.90;59.30
15262;DHT22;7733;51.554;13.590;2023-07-16T14:11:57;29.10;60.30
15262;DHT22;7733;51.554;13.590;2023-07-16T14:14:23;29.20;59.40
15262;DHT22;7733;51.554;13.590;2023-07-16T14:16:49;28.80;58.50
15262;DHT22;7733;51.554;13.590;2023-07-16T14:19:14;28.70;58.50
15262;DHT22;7733;51.554;13.590;2023-07-16T14:21:40;29.00;60.00
15262;DHT22;7733;51.554;13.590;2023-07-16T14:24:06;29.40;58.80
15262;DHT22;7733;51.554;13.590;2023-07-16T14:26:32;29.40;58.70
15262;DHT22;7733;51.554;13.590;2023-07-16T14:28:59;29.60;57.90
15262;DHT22;7733;51.554;13.590;2023-07-16T14:31:24;29.60;57.60
15262;DHT22;7733;51.554;13.590;2023-07-16T14:33:50;29.60;58.40
15262;DHT22;7733;51.554;13.590;2023-07-16T14:36:17;29.50;57.90
15262;DHT22;7733;51.554;13.590;2023-07-16T14:38:43;29.90;58.10
15262;DHT22;7733;51.554;13.590;2023-07-16T14:41:09;29.30;57.80
15262;DHT22;7733;51.554;13.590;2023-07-16T14:43:35;29.10;58.10
15262;DHT22;7733;51.554;13.590;2023-07-16T14:46:01;29.00;58.30
15262;DHT22;7733;51.554;13.590;2023-07-16T14:48:28;29.50;59.20
15262;DHT22;7733;51.554;13.590;2023-07-16T14:50:54;30.00;57.30
15262;DHT22;7733;51.554;13.590;2023-07-16T14:53:20;29.80;57.20
15262;DHT22;7733;51.554;13.590;2023-07-16T14:55:47;29.50;57.20
15262;DHT22;7733;51.554;13.590;2023-07-16T14:58:14;29.50;57.80
15262;DHT22;7733;51.554;13.590;2023-07-16T15:00:41;29.60;58.40
15262;DHT22;7733;51.554;13.590;2023-07-16T15:03:06;29.80;57.70
15262;DHT22;7733;51.554;13.590;2023-07-16T15:05:32;29.30;57.90
15262;DHT22;7733;51.554;13.590;2023-07-16T15:07:58;29.40;58.50
15262;DHT22;7733;51.554;13.590;2023-07-16T15:10:23;29.80;57.70
15262;DHT22;7733;51.554;13.590;2023-07-16T15:12:49;29.60;57.00
15262;DHT22;7733;51.554;13.590;2023-07-16T15:15:15;29.50;57.00
15262;DHT22;7733;51.554;13.590;2023-07-16T15:17:40;29.60;56.20
15262;DHT22;7733;51.554;13.590;2023-07-16T15:20:07;29.60;56.50
15262;DHT22;7733;51.554;13.590;2023-07-16T15:22:34;29.40;57.40
15262;DHT22;7733;51.554;13.590;2023-07-16T15:24:59;29.40;58.00
15262;DHT22;7733;51.554;13.590;2023-07-16T15:27:26;29.70;57.70
15262;DHT22;7733;51.554;13.590;2023-07-16T15:29:52;30.00;56.10
15262;DHT22;7733;51.554;13.590;2023-07-16T15:32:18;29.90;56.50
15262;DHT22;7733;51.554;13.590;2023-07-16T15:34:44;29.50;55.80
15262;DHT22;7733;51.554;13.590;2023-07-16T15:37:11;29.40;56.20